Time;durP1;ratioP1;P1;durP2;ratioP2;P2;SDS_P1;SDS_P2;PMS_P1;PMS_P2;Temp;Humidity;BMP_temperature;BMP_pressure;BME280_temperature;BME280_humidity;BME280_pressure;Samples;Min_cycle;Max_cycle;Signal;HPM_P1;HPM_P2
2021/03/13 00:00:35;;;;;;;3.77;2.23;;;4.50;99.90;;;;;;4990650;28;20282;-52
2021/03/13 00:03:01;;;;;;;8.23;2.80;;;4.60;99.90;;;;;;4999129;28;20172;-55
2021/03/13 00:05:29;;;;;;;3.53;2.47;;;4.60;99.90;;;;;;4989732;28;20243;-57
2021/03/13 00:07:55;;;;;;;4.30;2.50;;;4.50;99.90;;;;;;5007146;28;20184;-55
2021/03/13 00:10:21;;;;;;;4.80;2.77;;;4.60;99.90;;;;;;4986188;28;20533;-53
2021/03/13 00:12:47;;;;;;;4.53;2.13;;;4.50;99.90;;;;;;4994716;28;20261;-52
2021/03/13 00:15:14;;;;;;;4.37;2.40;;;4.50;99.90;;;;;;5004881;28;20200;-55
2021/03/13 00:17:45;;;;;;;2.83;2.40;;;4.60;99.90;;;;;;4996942;28;20936;-51
2021/03/13 00:20:12;;;;;;;2.77;2.10;;;4.60;99.90;;;;;;5000508;28;20170;-55
2021/03/13 00:22:38;;;;;;;4.17;2.03;;;4.50;99.90;;;;;;4983626;28;20268;-52
2021/03/13 00:25:06;;;;;;;4.97;2.20;;;4.50;99.90;;;;;;4997670;28;20204;-53
2021/03/13 00:27:32;;;;;;;2.17;1.50;;;4.50;99.90;;;;;;4978617;28;20216;-53
2021/03/13 00:29:58;;;;;;;3.60;1.37;;;4.50;99.90;;;;;;4994029;28;20189;-53
2021/03/13 00:32:24;;;;;;;1.33;1.23;;;4.50;99.90;;;;;;5001805;28;20463;-53
2021/03/13 00:34:52;;;;;;;2.00;1.80;;;4.40;99.90;;;;;;5005439;28;20204;-51
2021/03/13 00:37:17;;;;;;;3.70;1.87;;;4.40;99.90;;;;;;5006067;28;20193;-55
2021/03/13 00:39:43;;;;;;;1.93;1.60;;;4.40;99.90;;;;;;4995869;28;20247;-51
2021/03/13 00:42:09;;;;;;;2.77;1.80;;;4.40;99.90;;;;;;4985740;28;20180;-57
2021/03/13 00:44:35;;;;;;;3.53;1.87;;;4.30;99.90;;;;;;4982369;28;20284;-54
2021/03/13 00:47:00;;;;;;;5.37;2.10;;;4.30;99.90;;;;;;5007758;28;20208;-49
2021/03/13 00:49:26;;;;;;;1.97;1.67;;;4.30;99.90;;;;;;5002777;28;20181;-54
2021/03/13 00:51:52;;;;;;;2.33;1.77;;;4.20;99.90;;;;;;5021119;28;20185;-49
2021/03/13 00:54:17;;;;;;;3.10;1.60;;;4.20;99.90;;;;;;5003266;28;20208;-49
2021/03/13 00:56:43;;;;;;;1.93;1.50;;;4.20;99.90;;;;;;5002793;28;20196;-51
2021/03/13 00:59:09;;;;;;;4.03;1.67;;;4.10;99.90;;;;;;4985738;28;20243;-55
2021/03/13 01:01:35;;;;;;;1.90;1.67;;;4.20;99.90;;;;;;5005266;28;20189;-49
2021/03/13 01:04:00;;;;;;;2.30;2.10;;;4.10;99.90;;;;;;5012471;28;20189;-50
2021/03/13 01:06:26;;;;;;;6.27;1.97;;;4.10;99.90;;;;;;5000123;28;20204;-55
2021/03/13 01:08:51;;;;;;;3.23;1.83;;;4.10;99.90;;;;;;4998624;28;20195;-52
2021/03/13 01:11:22;;;;;;;2.03;1.60;;;4.10;99.90;;;;;;5000287;28;20181;-51
2021/03/13 01:13:53;;;;;;;2.30;1.67;;;4.10;99.90;;;;;;5001740;28;20705;-49
2021/03/13 01:16:23;;;;;;;2.40;2.20;;;4.00;99.90;;;;;;4990395;28;20196;-57
2021/03/13 01:18:48;;;;;;;2.37;1.60;;;4.00;99.90;;;;;;5002600;28;20212;-51
2021/03/13 01:21:22;;;;;;;3.03;1.77;;;4.00;99.90;;;;;;4982178;28;20177;-53
2021/03/13 01:23:47;;;;;;;1.87;1.70;;;4.00;99.90;;;;;;4998472;28;20189;-54
2021/03/13 01:26:17;;;;;;;1.63;1.53;;;4.00;99.90;;;;;;4982495;28;20666;-53
2021/03/13 01:28:44;;;;;;;1.40;1.30;;;3.90;99.90;;;;;;4981111;28;20268;-49
2021/03/13 01:31:23;;;;;;;3.80;1.73;;;4.00;99.90;;;;;;4976031;28;20192;-52
2021/03/13 01:33:48;;;;;;;3.53;1.90;;;4.00;99.90;;;;;;5008400;28;20276;-54
2021/03/13 01:36:14;;;;;;;2.00;1.10;;;3.90;99.90;;;;;;5026293;28;20290;-52
2021/03/13 01:38:41;;;;;;;4.90;1.53;;;3.90;99.90;;;;;;5020697;28;20163;-54
2021/03/13 01:41:10;;;;;;;1.50;1.40;;;3.90;99.90;;;;;;5023182;28;20182;-56
2021/03/13 01:43:36;;;;;;;2.00;1.33;;;3.90;99.90;;;;;;5002632;28;20878;-48
2021/03/13 01:46:02;;;;;;;1.43;1.20;;;3.90;99.90;;;;;;4990528;28;20221;-50
2021/03/13 01:48:43;;;;;;;1.47;1.33;;;3.90;99.90;;;;;;4992400;28;20181;-48
2021/03/13 01:51:12;;;;;;;3.77;1.63;;;3.90;99.90;;;;;;4995630;28;20310;-53
2021/03/13 01:53:40;;;;;;;1.40;1.20;;;3.90;99.90;;;;;;5015547;28;20209;-49
2021/03/13 01:56:07;;;;;;;1.63;1.50;;;3.90;99.90;;;;;;5018898;28;20201;-51
2021/03/13 01:58:36;;;;;;;2.70;1.17;;;3.90;99.90;;;;;;5010935;28;20235;-48
2021/03/13 02:01:08;;;;;;;2.97;1.47;;;3.90;99.90;;;;;;5018373;28;20215;-49
2021/03/13 02:03:41;;;;;;;1.50;1.40;;;3.90;99.90;;;;;;4978397;28;20185;-50
2021/03/13 02:06:08;;;;;;;3.67;1.40;;;3.90;99.90;;;;;;5005976;28;20222;-57
2021/03/13 02:08:49;;;;;;;2.57;1.40;;;3.80;99.90;;;;;;5001439;28;20871;-54
2021/03/13 02:11:27;;;;;;;3.40;1.60;;;3.80;99.90;;;;;;4986632;28;20252;-52
2021/03/13 02:14:11;;;;;;;3.00;1.33;;;3.80;99.90;;;;;;4981866;28;20212;-52
2021/03/13 02:17:01;;;;;;;4.93;1.33;;;3.70;99.90;;;;;;5021341;28;20700;-53
2021/03/13 02:19:44;;;;;;;1.67;1.17;;;3.70;99.90;;;;;;4989723;28;20668;-54
2021/03/13 02:22:13;;;;;;;1.93;1.00;;;3.70;99.90;;;;;;5010887;28;20762;-47
2021/03/13 02:25:07;;;;;;;2.37;1.10;;;3.70;99.90;;;;;;5001177;28;20654;-48
2021/03/13 02:27:43;;;;;;;2.07;0.90;;;3.70;99.90;;;;;;5002409;28;20712;-53
2021/03/13 02:30:25;;;;;;;3.47;0.93;;;3.80;99.90;;;;;;5017102;28;20173;-49
2021/03/13 02:33:12;;;;;;;1.30;1.00;;;3.80;99.90;;;;;;4983863;28;20189;-52
2021/03/13 02:35:59;;;;;;;1.07;0.80;;;3.80;99.90;;;;;;4995029;28;20270;-49
2021/03/13 02:38:39;;;;;;;5.10;1.20;;;3.80;99.90;;;;;;5014647;28;20208;-48
2021/03/13 02:41:12;;;;;;;2.70;1.20;;;3.80;99.90;;;;;;5002061;28;20211;-50
2021/03/13 02:43:43;;;;;;;3.10;1.00;;;3.80;99.90;;;;;;4996263;28;20287;-50
2021/03/13 02:46:10;;;;;;;2.73;1.10;;;3.70;99.90;;;;;;5001587;28;20214;-53
2021/03/13 02:48:39;;;;;;;3.03;1.33;;;3.70;99.90;;;;;;4987859;28;20292;-53
2021/03/13 02:51:05;;;;;;;4.07;2.27;;;3.70;99.90;;;;;;5005712;28;20188;-53
2021/03/13 02:53:35;;;;;;;6.57;1.77;;;3.70;99.90;;;;;;4989290;28;20930;-49
2021/03/13 02:56:06;;;;;;;7.03;2.13;;;3.70;99.90;;;;;;4999391;28;20213;-50
2021/03/13 02:58:36;;;;;;;2.00;1.67;;;3.70;99.90;;;;;;5001157;28;20175;-48
2021/03/13 03:01:03;;;;;;;4.63;2.37;;;3.70;99.90;;;;;;5017224;28;20343;-48
2021/03/13 03:03:30;;;;;;;7.37;2.57;;;3.80;99.90;;;;;;5000745;28;20191;-49
2021/03/13 03:06:06;;;;;;;5.73;2.77;;;3.90;99.90;;;;;;4984721;28;20196;-48
2021/03/13 03:08:41;;;;;;;2.87;2.57;;;3.90;99.90;;;;;;4997410;28;20207;-50
2021/03/13 03:11:09;;;;;;;5.43;3.07;;;3.90;99.90;;;;;;5006173;28;20680;-52
2021/03/13 03:13:35;;;;;;;5.87;2.83;;;3.90;99.90;;;;;;4999251;28;20242;-52
2021/03/13 03:16:04;;;;;;;3.13;2.67;;;3.90;99.90;;;;;;5007952;28;20204;-52
2021/03/13 03:18:31;;;;;;;5.27;2.73;;;3.90;99.90;;;;;;5002391;28;20204;-53
2021/03/13 03:20:57;;;;;;;4.73;2.87;;;3.90;99.90;;;;;;4984446;28;20280;-51
2021/03/13 03:23:24;;;;;;;5.13;3.17;;;3.90;99.90;;;;;;4999290;28;20196;-57
2021/03/13 03:25:53;;;;;;;4.47;3.13;;;3.90;99.90;;;;;;5008501;28;20196;-51
2021/03/13 03:28:21;;;;;;;6.50;3.10;;;3.90;99.90;;;;;;5001242;28;20266;-56
2021/03/13 03:30:57;;;;;;;5.80;3.40;;;3.90;99.90;;;;;;5007438;28;20182;-53
2021/03/13 03:33:25;;;;;;;3.53;3.00;;;3.80;99.90;;;;;;4998128;28;20536;-57
2021/03/13 03:35:58;;;;;;;3.90;2.80;;;3.80;99.90;;;;;;5002680;28;20208;-53
2021/03/13 03:38:26;;;;;;;4.27;2.70;;;3.80;99.90;;;;;;4989613;28;20173;-56
2021/03/13 03:40:52;;;;;;;6.10;3.40;;;3.80;99.90;;;;;;4988652;28;20188;-53
2021/03/13 03:43:31;;;;;;;7.20;3.60;;;3.80;99.90;;;;;;4984820;28;20181;-57
2021/03/13 03:46:03;;;;;;;5.80;3.40;;;3.80;99.90;;;;;;5006198;28;20215;-54
2021/03/13 03:48:30;;;;;;;6.77;3.40;;;3.80;99.90;;;;;;5000956;28;20185;-54
2021/03/13 03:51:09;;;;;;;5.17;3.30;;;3.80;99.90;;;;;;4989121;28;20667;-49
2021/03/13 03:53:44;;;;;;;9.60;3.80;;;3.70;99.90;;;;;;4994245;28;20239;-54
2021/03/13 03:56:10;;;;;;;5.27;3.37;;;3.70;99.90;;;;;;5013214;28;20200;-49
2021/03/13 03:58:43;;;;;;;8.53;3.83;;;3.70;99.90;;;;;;5013232;28;20199;-53
2021/03/13 04:01:09;;;;;;;11.53;3.90;;;3.70;99.90;;;;;;5008966;28;20173;-53
2021/03/13 04:03:43;;;;;;;9.77;3.80;;;3.70;99.90;;;;;;4995490;28;20188;-53
2021/03/13 04:06:11;;;;;;;10.70;4.47;;;3.70;99.90;;;;;;4996517;28;20219;-50
2021/03/13 04:08:40;;;;;;;7.80;4.10;;;3.80;99.90;;;;;;4983498;28;20192;-47
2021/03/13 04:11:05;;;;;;;6.67;4.20;;;3.80;99.90;;;;;;4986289;28;20194;-53
2021/03/13 04:13:32;;;;;;;9.60;4.90;;;3.80;99.90;;;;;;4982154;28;20185;-52
2021/03/13 04:15:58;;;;;;;7.07;4.17;;;3.80;99.90;;;;;;4993462;28;20343;-52
2021/03/13 04:18:24;;;;;;;11.83;5.17;;;3.80;99.90;;;;;;5002506;28;20303;-53
2021/03/13 04:20:51;;;;;;;10.67;5.13;;;3.90;99.90;;;;;;5004649;28;20181;-50
2021/03/13 04:23:20;;;;;;;9.27;4.53;;;3.90;99.90;;;;;;4976261;28;20239;-47
2021/03/13 04:25:50;;;;;;;11.53;4.90;;;3.90;99.90;;;;;;4996521;28;20299;-50
2021/03/13 04:28:16;;;;;;;10.17;4.97;;;3.90;99.90;;;;;;4996642;28;20768;-52
2021/03/13 04:30:41;;;;;;;8.13;5.27;;;3.90;99.90;;;;;;4986417;28;20184;-52
2021/03/13 04:33:07;;;;;;;12.77;5.33;;;4.00;99.90;;;;;;4988641;28;20191;-53
2021/03/13 04:35:33;;;;;;;10.33;5.30;;;4.00;99.90;;;;;;5004405;28;20212;-52
2021/03/13 04:38:00;;;;;;;8.37;5.30;;;4.00;99.90;;;;;;4986921;28;20180;-49
2021/03/13 04:40:26;;;;;;;9.93;5.37;;;4.00;99.90;;;;;;4995632;28;20248;-49
2021/03/13 04:42:52;;;;;;;8.07;4.87;;;4.00;99.90;;;;;;4988425;28;20272;-47
2021/03/13 04:45:19;;;;;;;11.30;5.17;;;4.00;99.90;;;;;;5001036;28;20251;-50
2021/03/13 04:47:49;;;;;;;10.23;5.10;;;4.00;99.90;;;;;;5004956;28;20180;-52
2021/03/13 04:50:17;;;;;;;10.50;5.17;;;3.90;99.90;;;;;;4998861;28;20185;-48
2021/03/13 04:52:43;;;;;;;10.33;4.57;;;3.90;99.90;;;;;;4990275;28;20839;-51
2021/03/13 04:55:09;;;;;;;11.30;5.30;;;3.90;99.90;;;;;;4998556;28;20204;-53
2021/03/13 04:57:35;;;;;;;8.00;5.40;;;3.90;99.90;;;;;;4999990;28;20217;-53
2021/03/13 05:00:04;;;;;;;10.50;5.10;;;3.90;99.90;;;;;;4984090;28;20256;-54
2021/03/13 05:02:29;;;;;;;6.77;5.17;;;3.90;99.90;;;;;;4996588;28;20189;-48
2021/03/13 05:04:55;;;;;;;11.80;6.17;;;3.90;99.90;;;;;;5005172;28;20570;-55
2021/03/13 05:07:20;;;;;;;9.93;5.37;;;3.90;99.90;;;;;;4997348;28;20961;-51
2021/03/13 05:09:46;;;;;;;8.57;6.10;;;3.90;99.90;;;;;;4984007;28;20197;-52
2021/03/13 05:12:11;;;;;;;9.53;6.30;;;3.90;99.90;;;;;;4988881;28;20185;-56
2021/03/13 05:14:37;;;;;;;10.97;6.60;;;4.00;99.90;;;;;;5007970;28;20266;-48
2021/03/13 05:17:03;;;;;;;10.30;6.20;;;4.00;99.90;;;;;;5005849;28;20214;-53
2021/03/13 05:19:28;;;;;;;12.20;6.23;;;4.00;99.90;;;;;;5000856;28;20967;-49
2021/03/13 05:21:54;;;;;;;12.20;6.23;;;4.00;99.90;;;;;;4998827;28;20604;-50
2021/03/13 05:24:20;;;;;;;16.57;7.60;;;4.00;99.90;;;;;;4989520;28;20197;-49
2021/03/13 05:26:46;;;;;;;13.53;7.33;;;4.00;99.90;;;;;;5001816;28;20220;-49
2021/03/13 05:29:11;;;;;;;14.00;7.00;;;4.00;99.90;;;;;;4986764;28;20543;-52
2021/03/13 05:31:37;;;;;;;12.67;7.40;;;4.10;99.90;;;;;;4984660;28;20264;-49
2021/03/13 05:34:03;;;;;;;12.57;7.33;;;4.10;99.90;;;;;;5001911;28;20287;-50
2021/03/13 05:36:28;;;;;;;14.13;7.30;;;4.10;99.90;;;;;;4997068;28;21333;-47
2021/03/13 05:38:54;;;;;;;10.80;7.50;;;4.10;99.90;;;;;;4996218;28;20187;-50
2021/03/13 05:41:20;;;;;;;12.60;7.77;;;4.20;99.90;;;;;;4979761;28;20195;-47
2021/03/13 05:43:46;;;;;;;12.63;8.23;;;4.20;99.90;;;;;;4985998;28;20210;-49
2021/03/13 05:46:12;;;;;;;11.97;8.33;;;4.20;99.90;;;;;;4980185;28;20438;-52
2021/03/13 05:48:43;;;;;;;15.37;8.80;;;4.20;99.90;;;;;;4992979;28;20283;-49
2021/03/13 05:51:12;;;;;;;11.97;8.30;;;4.20;99.90;;;;;;5000376;28;20594;-49
2021/03/13 05:53:40;;;;;;;14.07;8.00;;;4.30;99.90;;;;;;4994936;28;20203;-51
2021/03/13 05:56:08;;;;;;;12.30;8.57;;;4.30;99.90;;;;;;4987533;28;20209;-49
2021/03/13 05:58:36;;;;;;;17.23;8.80;;;4.30;99.90;;;;;;4994708;28;20181;-50
2021/03/13 06:01:02;;;;;;;11.87;8.33;;;4.30;99.90;;;;;;4981581;28;20169;-52
2021/03/13 06:03:30;;;;;;;16.60;9.17;;;4.40;99.90;;;;;;4982242;28;20165;-52
2021/03/13 06:05:56;;;;;;;18.23;10.07;;;4.40;99.90;;;;;;4986828;28;20280;-49
2021/03/13 06:08:22;;;;;;;17.10;9.63;;;4.40;99.90;;;;;;4992623;28;20982;-46
2021/03/13 06:10:49;;;;;;;19.50;9.30;;;4.50;99.90;;;;;;4975606;28;20333;-50
2021/03/13 06:13:15;;;;;;;16.20;9.77;;;4.50;99.90;;;;;;4995873;28;20287;-50
2021/03/13 06:15:41;;;;;;;13.90;9.07;;;4.50;99.90;;;;;;4992039;28;20224;-51
2021/03/13 06:18:07;;;;;;;16.63;10.13;;;4.50;99.90;;;;;;4995106;28;20196;-54
2021/03/13 06:20:39;;;;;;;17.00;9.10;;;4.50;99.90;;;;;;5005111;28;20181;-49
2021/03/13 06:23:08;;;;;;;15.17;9.50;;;4.60;99.90;;;;;;4986183;28;20897;-49
2021/03/13 06:25:35;;;;;;;14.33;8.30;;;4.60;99.90;;;;;;4991556;28;20203;-48
2021/03/13 06:28:05;;;;;;;14.43;9.40;;;4.60;99.90;;;;;;4995006;28;20192;-52
2021/03/13 06:30:33;;;;;;;14.80;9.67;;;4.60;99.90;;;;;;5006795;28;20660;-53
2021/03/13 06:33:00;;;;;;;16.27;8.90;;;4.60;99.90;;;;;;4996706;28;20200;-49
2021/03/13 06:35:30;;;;;;;15.13;8.63;;;4.60;99.90;;;;;;4998325;28;20267;-50
2021/03/13 06:37:57;;;;;;;16.50;8.73;;;4.70;99.90;;;;;;4999121;28;20176;-48
2021/03/13 06:40:32;;;;;;;18.20;9.13;;;4.70;99.90;;;;;;5008095;28;20192;-50
2021/03/13 06:42:59;;;;;;;14.63;9.20;;;4.70;99.90;;;;;;4990218;28;20904;-48
2021/03/13 06:45:25;;;;;;;15.73;8.80;;;4.70;99.90;;;;;;4992740;28;20201;-55
2021/03/13 06:47:51;;;;;;;16.13;8.93;;;4.70;99.90;;;;;;4994706;28;20251;-48
2021/03/13 06:50:22;;;;;;;15.53;9.90;;;4.70;99.90;;;;;;4994020;28;20199;-55
2021/03/13 06:53:08;;;;;;;13.17;8.77;;;4.80;99.90;;;;;;4998474;28;20204;-54
2021/03/13 06:55:34;;;;;;;12.90;8.60;;;4.80;99.90;;;;;;5004109;28;20215;-54
2021/03/13 06:58:13;;;;;;;16.23;9.37;;;4.80;99.90;;;;;;4988938;28;20189;-53
2021/03/13 07:00:42;;;;;;;16.00;8.33;;;4.80;99.90;;;;;;4999787;28;20176;-49
2021/03/13 07:03:15;;;;;;;14.13;8.57;;;4.80;99.90;;;;;;4992884;28;20551;-48
2021/03/13 07:05:43;;;;;;;17.50;8.93;;;4.90;99.90;;;;;;4994042;28;20207;-50
2021/03/13 07:08:24;;;;;;;16.43;8.97;;;4.90;99.90;;;;;;4994692;28;20200;-51
2021/03/13 07:11:13;;;;;;;12.73;7.90;;;4.90;99.90;;;;;;4994442;28;20917;-47
2021/03/13 07:13:44;;;;;;;14.67;7.00;;;4.90;99.90;;;;;;4974968;28;20205;-51
2021/03/13 07:16:28;;;;;;;11.53;7.17;;;4.90;99.90;;;;;;4993924;28;20197;-48
2021/03/13 07:19:06;;;;;;;13.80;6.87;;;4.90;99.90;;;;;;4992377;28;20200;-53
2021/03/13 07:21:32;;;;;;;11.37;6.23;;;5.00;99.90;;;;;;4999785;28;20228;-52
2021/03/13 07:24:06;;;;;;;9.63;6.07;;;5.00;99.90;;;;;;5016243;28;20979;-47
2021/03/13 07:26:38;;;;;;;7.97;5.80;;;5.00;99.90;;;;;;4996961;28;20209;-56
2021/03/13 07:29:06;;;;;;;10.43;6.10;;;5.00;99.90;;;;;;4984631;28;20507;-52
2021/03/13 07:31:40;;;;;;;8.27;5.77;;;5.00;99.90;;;;;;4996407;28;20204;-49
2021/03/13 07:34:19;;;;;;;7.73;4.60;;;5.00;99.90;;;;;;4996020;28;20215;-53
2021/03/13 07:36:52;;;;;;;7.67;5.10;;;5.00;99.90;;;;;;4988716;28;20296;-55
2021/03/13 07:39:20;;;;;;;9.77;5.10;;;5.00;99.90;;;;;;5009018;28;20703;-52
2021/03/13 07:42:02;;;;;;;7.07;4.67;;;5.00;99.90;;;;;;4991474;28;20486;-52
2021/03/13 07:44:30;;;;;;;6.10;4.73;;;5.00;99.90;;;;;;4990802;28;20723;-55
2021/03/13 07:46:57;;;;;;;5.47;4.33;;;5.00;99.90;;;;;;4992790;28;20431;-50
2021/03/13 07:49:23;;;;;;;6.87;4.17;;;5.00;99.90;;;;;;4988903;28;20189;-51
2021/03/13 07:51:49;;;;;;;11.10;5.40;;;5.00;99.90;;;;;;4991876;28;20189;-50
2021/03/13 07:54:15;;;;;;;5.30;4.47;;;5.00;99.90;;;;;;5002550;28;20251;-49
2021/03/13 07:56:42;;;;;;;9.33;4.20;;;5.00;99.90;;;;;;4996960;28;20209;-54
2021/03/13 07:59:12;;;;;;;5.27;3.93;;;5.00;99.90;;;;;;4978468;28;20193;-52
2021/03/13 08:01:48;;;;;;;5.43;4.17;;;5.00;99.90;;;;;;4984627;28;20599;-54
2021/03/13 08:04:32;;;;;;;6.13;4.63;;;5.00;99.90;;;;;;4994587;28;20188;-49
2021/03/13 08:06:59;;;;;;;4.47;4.00;;;5.00;99.90;;;;;;4991423;28;20207;-48
2021/03/13 08:09:24;;;;;;;5.47;3.37;;;5.00;99.90;;;;;;4986509;28;20185;-46
2021/03/13 08:11:50;;;;;;;4.20;3.63;;;5.00;99.90;;;;;;4988280;28;20267;-49
2021/03/13 08:14:30;;;;;;;3.57;3.13;;;5.00;99.90;;;;;;4986490;28;20248;-50
2021/03/13 08:17:14;;;;;;;4.40;3.00;;;5.00;99.90;;;;;;5009593;28;20188;-48
2021/03/13 08:19:44;;;;;;;2.97;2.73;;;5.00;99.90;;;;;;4997568;28;20184;-52
2021/03/13 08:22:11;;;;;;;4.20;2.97;;;5.00;99.90;;;;;;4998564;28;20212;-50
2021/03/13 08:24:51;;;;;;;2.67;2.47;;;5.00;99.90;;;;;;4996143;28;20203;-52
2021/03/13 08:27:42;;;;;;;2.37;2.17;;;5.00;99.90;;;;;;5005597;28;20239;-49
2021/03/13 08:30:25;;;;;;;2.40;2.20;;;5.00;99.90;;;;;;4987421;28;20201;-51
2021/03/13 08:32:57;;;;;;;1.50;1.40;;;5.00;99.90;;;;;;4991776;28;20196;-50
2021/03/13 08:35:45;;;;;;;2.70;2.50;;;5.00;99.90;;;;;;4998498;28;20209;-48
2021/03/13 08:38:12;;;;;;;2.10;2.00;;;5.00;99.90;;;;;;4992542;28;20197;-51
2021/03/13 08:40:50;;;;;;;3.00;1.93;;;5.00;99.90;;;;;;4996845;28;20766;-54
2021/03/13 08:43:35;;;;;;;1.63;1.53;;;5.00;99.90;;;;;;5005015;28;20247;-54
2021/03/13 08:46:02;;;;;;;3.63;1.80;;;5.00;99.90;;;;;;4984630;28;20801;-54
2021/03/13 08:48:55;;;;;;;2.03;1.53;;;5.00;99.90;;;;;;4992332;28;20601;-52
2021/03/13 08:51:21;;;;;;;1.67;1.37;;;5.00;99.90;;;;;;4987489;28;20212;-53
2021/03/13 08:53:46;;;;;;;3.37;1.83;;;5.00;99.90;;;;;;4980004;28;20220;-52
2021/03/13 08:56:38;;;;;;;1.33;1.23;;;5.10;99.90;;;;;;4988124;28;20209;-49
2021/03/13 08:59:18;;;;;;;1.40;1.30;;;5.10;99.90;;;;;;5000296;28;20964;-49
2021/03/13 09:02:00;;;;;;;2.83;1.20;;;5.10;99.90;;;;;;4977634;28;20567;-54
2021/03/13 09:04:25;;;;;;;1.90;1.10;;;5.10;99.90;;;;;;4993488;28;20761;-55
2021/03/13 09:06:51;;;;;;;4.23;1.20;;;5.10;99.90;;;;;;4994309;28;20312;-53
2021/03/13 09:09:17;;;;;;;1.00;1.00;;;5.20;99.90;;;;;;4985803;28;20231;-50
2021/03/13 09:11:43;;;;;;;1.60;1.20;;;5.10;99.90;;;;;;4982173;28;20174;-53
2021/03/13 09:14:09;;;;;;;1.40;1.30;;;5.20;99.90;;;;;;4988177;28;20240;-50
2021/03/13 09:16:37;;;;;;;1.03;0.90;;;5.20;99.90;;;;;;4978640;28;20712;-52
2021/03/13 09:19:06;;;;;;;1.23;1.10;;;5.20;99.90;;;;;;4999467;28;20161;-52
2021/03/13 09:21:55;;;;;;;2.03;1.37;;;5.20;99.90;;;;;;4984204;28;20669;-48
2021/03/13 09:24:27;;;;;;;1.60;1.50;;;5.30;99.90;;;;;;4993835;28;20200;-49
2021/03/13 09:27:03;;;;;;;1.40;0.77;;;5.30;99.90;;;;;;5001422;28;20296;-50
2021/03/13 09:29:36;;;;;;;2.13;1.63;;;5.30;99.90;;;;;;5004126;28;20176;-54
2021/03/13 09:32:05;;;;;;;1.70;1.60;;;5.40;99.90;;;;;;4986349;28;20208;-50
2021/03/13 09:34:35;;;;;;;1.50;1.40;;;5.40;99.90;;;;;;5005462;28;20251;-55
2021/03/13 09:37:10;;;;;;;1.53;1.43;;;5.50;99.90;;;;;;5003349;28;20264;-50
2021/03/13 09:39:36;;;;;;;1.60;1.47;;;5.50;99.90;;;;;;4998491;28;20329;-55
2021/03/13 09:42:02;;;;;;;1.60;1.40;;;5.60;99.90;;;;;;5006374;28;20161;-53
2021/03/13 09:44:44;;;;;;;2.77;1.43;;;5.60;99.90;;;;;;5007001;28;20177;-56
2021/03/13 09:47:21;;;;;;;1.40;1.30;;;5.70;99.90;;;;;;4994522;28;20231;-53
2021/03/13 09:49:55;;;;;;;1.40;1.10;;;5.70;99.90;;;;;;4994969;28;20181;-48
2021/03/13 09:52:26;;;;;;;1.70;0.90;;;5.80;99.90;;;;;;5007203;28;20168;-51
2021/03/13 09:55:09;;;;;;;1.50;0.40;;;5.90;99.90;;;;;;4997281;28;20310;-50
2021/03/13 09:57:37;;;;;;;0.67;0.40;;;6.00;99.90;;;;;;4996832;28;20634;-54
2021/03/13 10:00:09;;;;;;;0.40;0.30;;;6.10;99.90;;;;;;4992909;28;20176;-52
2021/03/13 10:02:35;;;;;;;0.43;0.30;;;6.10;99.90;;;;;;4984693;28;20200;-54
2021/03/13 10:05:01;;;;;;;0.20;0.20;;;6.20;99.90;;;;;;5001405;28;20169;-53
2021/03/13 10:07:27;;;;;;;1.90;0.40;;;6.20;99.90;;;;;;5007200;28;20532;-51
2021/03/13 10:09:58;;;;;;;1.23;0.30;;;6.20;99.90;;;;;;4994007;28;20302;-48
2021/03/13 10:12:35;;;;;;;0.20;0.20;;;6.20;99.90;;;;;;5006897;28;20188;-52
2021/03/13 10:15:25;;;;;;;1.30;0.20;;;6.20;99.90;;;;;;5003742;28;20254;-51
2021/03/13 10:17:59;;;;;;;2.20;0.67;;;6.20;99.90;;;;;;4989293;28;20704;-51
2021/03/13 10:20:29;;;;;;;2.90;0.50;;;6.30;99.90;;;;;;4986506;28;20179;-52
2021/03/13 10:23:01;;;;;;;2.10;0.30;;;6.30;99.90;;;;;;4997877;28;20191;-49
2021/03/13 10:25:26;;;;;;;0.50;0.50;;;6.40;99.90;;;;;;4986522;28;20192;-54
2021/03/13 10:27:52;;;;;;;2.73;0.40;;;6.50;99.90;;;;;;4999109;28;20199;-51
2021/03/13 10:30:25;;;;;;;1.77;0.43;;;6.70;99.90;;;;;;4989981;28;20192;-54
2021/03/13 10:32:50;;;;;;;2.50;0.70;;;6.80;99.90;;;;;;4986030;28;20669;-53
2021/03/13 10:35:20;;;;;;;1.57;0.40;;;6.90;99.90;;;;;;4977801;28;20212;-52
2021/03/13 10:37:51;;;;;;;3.93;0.60;;;7.10;99.90;;;;;;4986278;28;20654;-47
2021/03/13 10:40:41;;;;;;;1.23;0.53;;;7.10;99.90;;;;;;4994579;28;20247;-50
2021/03/13 10:43:13;;;;;;;1.90;0.40;;;7.20;99.90;;;;;;4996636;28;20181;-48
2021/03/13 10:45:40;;;;;;;1.00;0.57;;;7.30;99.90;;;;;;4985433;28;20208;-51
2021/03/13 10:48:07;;;;;;;2.20;0.67;;;7.30;99.90;;;;;;4983986;28;20590;-52
2021/03/13 10:50:38;;;;;;;2.50;0.80;;;7.40;99.90;;;;;;4983186;28;20228;-48
2021/03/13 10:53:33;;;;;;;2.37;0.80;;;7.50;99.90;;;;;;4995282;28;20277;-51
2021/03/13 10:56:02;;;;;;;2.73;0.77;;;7.50;99.90;;;;;;5002443;28;20224;-51
2021/03/13 10:58:30;;;;;;;3.53;0.63;;;7.70;99.90;;;;;;4990023;28;20184;-51
2021/03/13 11:00:56;;;;;;;3.60;0.80;;;7.90;99.90;;;;;;5002968;28;20181;-50
2021/03/13 11:03:22;;;;;;;3.37;1.23;;;8.00;99.90;;;;;;4999810;28;20596;-49
2021/03/13 11:05:51;;;;;;;1.97;0.40;;;8.00;99.90;;;;;;4988145;28;20342;-52
2021/03/13 11:08:18;;;;;;;2.40;0.80;;;7.90;99.90;;;;;;4995983;28;20178;-53
2021/03/13 11:10:43;;;;;;;4.50;0.70;;;7.90;99.90;;;;;;4982737;28;20184;-50
2021/03/13 11:13:09;;;;;;;2.43;0.50;;;7.80;99.90;;;;;;4989576;28;20184;-49
2021/03/13 11:15:34;;;;;;;2.30;0.70;;;7.80;99.90;;;;;;5004749;28;20212;-48
2021/03/13 11:18:00;;;;;;;6.00;1.00;;;7.80;99.90;;;;;;5007484;28;20173;-50
2021/03/13 11:20:26;;;;;;;5.40;1.03;;;7.90;99.90;;;;;;4988125;28;20189;-50
2021/03/13 11:22:52;;;;;;;3.87;1.10;;;7.90;99.90;;;;;;5001522;28;20223;-50
2021/03/13 11:25:18;;;;;;;2.50;1.00;;;8.00;99.90;;;;;;5002032;28;20212;-54
2021/03/13 11:27:43;;;;;;;4.23;1.33;;;8.00;99.90;;;;;;4996488;28;20197;-47
2021/03/13 11:30:10;;;;;;;6.57;1.33;;;8.10;99.90;;;;;;4994852;28;20184;-52
2021/03/13 11:32:37;;;;;;;2.73;1.07;;;8.10;99.90;;;;;;5003681;28;20218;-51
2021/03/13 11:35:07;;;;;;;4.50;1.10;;;8.10;99.90;;;;;;5005739;28;20315;-48
2021/03/13 11:37:33;;;;;;;2.47;1.00;;;8.30;99.90;;;;;;4983366;28;20201;-48
2021/03/13 11:39:59;;;;;;;7.33;0.93;;;8.30;99.90;;;;;;5008093;28;20188;-52
2021/03/13 11:42:28;;;;;;;1.63;0.90;;;8.40;99.90;;;;;;5003571;28;20319;-54
2021/03/13 11:45:05;;;;;;;2.97;1.20;;;8.30;99.90;;;;;;5000080;28;20199;-52
2021/03/13 11:47:31;;;;;;;4.97;1.13;;;8.30;99.90;;;;;;4983013;28;20947;-52
2021/03/13 11:49:56;;;;;;;1.87;1.13;;;8.10;99.90;;;;;;4986856;28;20272;-49
2021/03/13 11:52:22;;;;;;;2.23;0.90;;;8.00;99.90;;;;;;4979812;28;20197;-53
2021/03/13 11:54:49;;;;;;;7.23;1.27;;;8.10;99.90;;;;;;5001558;28;20347;-52
2021/03/13 11:57:16;;;;;;;5.83;1.27;;;8.20;99.90;;;;;;4999166;28;20212;-51
2021/03/13 11:59:45;;;;;;;2.33;1.10;;;8.40;99.90;;;;;;4984571;28;20189;-49
2021/03/13 12:02:12;;;;;;;6.60;1.13;;;8.50;99.90;;;;;;5008583;28;20172;-55
2021/03/13 12:04:38;;;;;;;4.67;1.10;;;8.60;99.90;;;;;;5003689;28;20176;-49
2021/03/13 12:07:04;;;;;;;2.53;0.63;;;8.50;99.90;;;;;;5003174;28;20203;-50
2021/03/13 12:09:29;;;;;;;3.03;0.20;;;7.70;99.90;;;;;;4989712;28;20192;-48
2021/03/13 12:11:55;;;;;;;1.97;0.50;;;6.60;99.90;;;;;;4987180;28;20252;-52
2021/03/13 12:14:21;;;;;;;3.53;0.70;;;5.80;99.90;;;;;;4989537;28;20904;-50
2021/03/13 12:16:46;;;;;;;2.63;0.67;;;5.60;99.90;;;;;;4998857;28;20213;-52
2021/03/13 12:19:12;;;;;;;0.50;0.30;;;5.50;99.90;;;;;;5003044;28;20689;-52
2021/03/13 12:21:39;;;;;;;1.33;0.80;;;5.40;99.90;;;;;;5003957;28;20179;-48
2021/03/13 12:24:05;;;;;;;3.13;0.50;;;5.40;99.90;;;;;;4989828;28;20188;-51
2021/03/13 12:26:30;;;;;;;2.83;0.57;;;5.60;99.90;;;;;;5002816;28;20197;-51
2021/03/13 12:28:56;;;;;;;3.47;0.57;;;5.80;99.90;;;;;;4988246;28;20247;-50
2021/03/13 12:31:21;;;;;;;3.27;0.63;;;5.90;99.90;;;;;;4995082;28;20176;-51
2021/03/13 12:33:47;;;;;;;2.90;0.70;;;6.00;99.90;;;;;;4999441;28;20212;-48
2021/03/13 12:36:13;;;;;;;4.70;0.83;;;6.20;99.90;;;;;;5003617;28;20294;-54
2021/03/13 12:38:39;;;;;;;4.93;0.90;;;6.40;99.90;;;;;;4988336;28;20189;-49
2021/03/13 12:41:05;;;;;;;1.33;0.77;;;6.50;99.90;;;;;;4997063;28;20710;-49
2021/03/13 12:43:31;;;;;;;3.37;1.00;;;6.60;99.90;;;;;;5002678;28;20181;-49
2021/03/13 12:45:57;;;;;;;2.03;0.90;;;6.80;99.90;;;;;;4987119;28;20227;-51
2021/03/13 12:48:22;;;;;;;3.97;0.87;;;7.10;99.90;;;;;;4993920;28;20196;-50
2021/03/13 12:50:48;;;;;;;1.63;0.50;;;7.20;99.90;;;;;;5005417;28;20199;-49
2021/03/13 12:53:13;;;;;;;4.70;1.00;;;7.30;99.90;;;;;;5002578;28;20204;-51
2021/03/13 12:55:39;;;;;;;3.30;1.00;;;7.40;99.90;;;;;;4988226;28;20900;-50
2021/03/13 12:58:04;;;;;;;5.00;1.03;;;7.60;99.90;;;;;;5007561;28;20574;-56
2021/03/13 13:00:30;;;;;;;1.60;1.10;;;7.80;99.90;;;;;;5004982;28;20227;-51
2021/03/13 13:02:56;;;;;;;1.73;0.80;;;8.00;99.90;;;;;;5002206;28;20196;-49
2021/03/13 13:05:21;;;;;;;5.53;1.23;;;8.10;99.90;;;;;;4995891;28;20883;-52
2021/03/13 13:07:49;;;;;;;4.87;1.20;;;8.30;99.90;;;;;;5004536;28;20609;-49